Time;durP1;ratioP1;P1;durP2;ratioP2;P2;SDS_P1;SDS_P2;PMS_P1;PMS_P2;Temp;Humidity;BMP_temperature;BMP_pressure;BME280_temperature;BME280_humidity;BME280_pressure;Samples;Min_cycle;Max_cycle;Signal;HPM_P1;HPM_P2
2021/07/13 00:00:27;;;;;;;73.37;65.77;;;19.50;94.60;;;;;;5113179;28;20430;-65
2021/07/13 00:02:53;;;;;;;78.23;69.73;;;19.50;94.60;;;;;;5112653;28;20047;-65
2021/07/13 00:05:20;;;;;;;69.37;61.90;;;19.50;94.60;;;;;;5113390;28;20356;-66
2021/07/13 00:07:47;;;;;;;71.10;63.37;;;19.50;94.60;;;;;;5113561;28;20046;-65
2021/07/13 00:10:16;;;;;;;74.53;66.67;;;19.50;94.70;;;;;;5112521;28;20048;-65
2021/07/13 00:12:42;;;;;;;77.20;68.93;;;19.40;94.70;;;;;;5113787;28;20096;-66
2021/07/13 00:15:19;;;;;;;68.00;60.63;;;19.50;94.80;;;;;;5113229;28;20075;-66
2021/07/13 00:17:45;;;;;;;73.90;65.53;;;19.50;94.80;;;;;;5112066;28;20048;-66
2021/07/13 00:20:11;;;;;;;69.13;61.63;;;19.50;94.80;;;;;;5113057;28;20121;-65
2021/07/13 00:22:37;;;;;;;71.47;63.93;;;19.50;94.90;;;;;;5113106;28;20055;-66
2021/07/13 00:25:04;;;;;;;72.67;64.30;;;19.50;94.80;;;;;;5112519;28;20404;-66
2021/07/13 00:27:29;;;;;;;66.97;59.93;;;19.50;94.80;;;;;;5112953;28;20043;-66
2021/07/13 00:29:55;;;;;;;65.10;58.23;;;19.50;94.80;;;;;;5113044;28;20399;-66
2021/07/13 00:32:21;;;;;;;60.37;54.10;;;19.50;94.80;;;;;;5111830;28;20039;-66
2021/07/13 00:34:46;;;;;;;65.73;59.03;;;19.50;94.70;;;;;;5113251;28;20053;-66
2021/07/13 00:37:12;;;;;;;72.50;62.33;;;19.50;94.70;;;;;;5113638;28;20051;-66
2021/07/13 00:39:38;;;;;;;74.73;66.63;;;19.50;94.70;;;;;;5112264;28;20094;-66
2021/07/13 00:42:03;;;;;;;72.50;64.87;;;19.50;94.70;;;;;;5112847;28;20058;-66
2021/07/13 00:44:29;;;;;;;69.50;61.20;;;19.40;94.70;;;;;;5112943;28;20181;-66
2021/07/13 00:46:58;;;;;;;76.17;67.93;;;19.40;94.70;;;;;;5112380;28;20496;-67
2021/07/13 00:49:24;;;;;;;74.17;66.03;;;19.40;94.80;;;;;;5112190;28;20488;-66
2021/07/13 00:51:50;;;;;;;64.97;58.13;;;19.30;94.80;;;;;;5112075;28;20097;-66
2021/07/13 00:54:16;;;;;;;71.00;63.77;;;19.30;94.80;;;;;;5112808;28;20079;-66
2021/07/13 00:56:43;;;;;;;71.43;63.87;;;19.30;94.90;;;;;;5113302;28;20052;-66
2021/07/13 00:59:10;;;;;;;74.37;62.23;;;19.30;95.40;;;;;;5111766;28;20043;-66
2021/07/13 01:01:36;;;;;;;68.23;60.77;;;19.20;95.00;;;;;;5112932;28;20104;-66
2021/07/13 01:04:04;;;;;;;60.80;54.50;;;19.20;95.10;;;;;;5112985;28;20051;-66
2021/07/13 01:06:57;;;;;;;69.93;62.63;;;19.20;95.10;;;;;;5111382;28;20469;-65
2021/07/13 01:09:55;;;;;;;70.53;63.17;;;19.20;95.10;;;;;;5111383;28;20040;-65
2021/07/13 01:12:47;;;;;;;59.90;52.57;;;19.20;95.00;;;;;;5091664;28;20460;-66
2021/07/13 01:15:20;;;;;;;58.93;53.03;;;19.20;95.00;;;;;;5112217;28;20050;-65
2021/07/13 01:17:52;;;;;;;68.37;60.97;;;19.20;95.10;;;;;;5112306;28;20055;-66
2021/07/13 01:20:37;;;;;;;64.03;56.87;;;19.20;95.40;;;;;;5111253;28;20469;-66
2021/07/13 01:23:28;;;;;;;59.87;53.43;;;19.20;95.00;;;;;;5112517;28;20168;-66
2021/07/13 01:26:06;;;;;;;;;;;19.20;95.00;;;;;;5074781;28;20051;-66
2021/07/13 01:28:39;;;;;;;67.23;59.80;;;19.20;95.10;;;;;;5111130;28;20353;-66
2021/07/13 01:31:09;;;;;;;71.23;62.63;;;19.20;95.00;;;;;;5112392;28;20043;-66
2021/07/13 01:33:36;;;;;;;69.70;60.87;;;19.20;95.10;;;;;;5112506;28;20043;-66
2021/07/13 01:36:14;;;;;;;63.50;56.40;;;19.20;95.10;;;;;;5111462;28;20035;-65
2021/07/13 01:38:42;;;;;;;67.90;60.63;;;19.10;95.20;;;;;;5112090;28;20053;-66
2021/07/13 01:41:14;;;;;;;56.87;50.70;;;19.10;95.30;;;;;;5110927;28;20047;-66
2021/07/13 01:43:43;;;;;;;56.90;50.83;;;19.10;95.40;;;;;;5112483;28;20055;-66
2021/07/13 01:46:11;;;;;;;67.00;59.47;;;19.10;95.40;;;;;;5111888;28;20039;-66
2021/07/13 01:48:42;;;;;;;63.53;55.90;;;19.20;95.40;;;;;;5111315;28;20052;-66
2021/07/13 01:51:09;;;;;;;55.28;48.55;;;19.20;95.40;;;;;;5112126;28;20086;-66
2021/07/13 01:53:36;;;;;;;64.27;57.17;;;19.20;95.30;;;;;;5112102;28;20130;-66
2021/07/13 01:56:02;;;;;;;54.17;48.83;;;19.20;95.30;;;;;;5111362;28;20119;-65
2021/07/13 01:58:30;;;;;;;56.43;50.50;;;19.20;95.30;;;;;;5112154;28;20456;-66
2021/07/13 02:01:04;;;;;;;55.83;49.93;;;19.20;95.40;;;;;;5112410;28;20054;-66
2021/07/13 02:03:31;;;;;;;65.00;58.07;;;19.20;95.40;;;;;;5111284;28;20375;-66
2021/07/13 02:05:57;;;;;;;65.17;56.10;;;19.20;95.30;;;;;;5111626;28;20047;-66
2021/07/13 02:08:24;;;;;;;53.80;48.10;;;19.20;95.40;;;;;;5111653;28;20047;-66
2021/07/13 02:10:51;;;;;;;61.77;55.07;;;19.20;95.40;;;;;;5110972;28;20498;-65
2021/07/13 02:13:19;;;;;;;53.97;47.73;;;19.20;95.40;;;;;;5111899;28;20134;-65
2021/07/13 02:15:45;;;;;;;58.97;51.27;;;19.10;95.40;;;;;;5111819;28;20055;-65
2021/07/13 02:18:11;;;;;;;66.33;59.10;;;19.10;95.50;;;;;;5110606;28;20097;-65
2021/07/13 02:20:37;;;;;;;68.50;61.10;;;19.10;95.50;;;;;;5113785;28;20040;-65
2021/07/13 02:23:05;;;;;;;61.93;54.83;;;19.10;95.50;;;;;;5115767;28;20396;-65
2021/07/13 02:25:31;;;;;;;62.20;55.57;;;19.10;95.60;;;;;;5115478;28;20051;-65
2021/07/13 02:28:18;;;;;;;63.13;54.77;;;19.10;95.60;;;;;;5115382;28;20138;-65
2021/07/13 02:30:51;;;;;;;67.17;58.87;;;19.10;95.60;;;;;;5114944;28;20397;-65
2021/07/13 02:33:23;;;;;;;68.67;61.23;;;19.00;95.70;;;;;;5115058;28;20483;-66
2021/07/13 02:35:55;;;;;;;66.17;54.80;;;19.00;95.80;;;;;;5115810;28;20131;-65
2021/07/13 02:38:22;;;;;;;63.40;56.47;;;19.00;96.20;;;;;;5114756;28;20134;-65
2021/07/13 02:40:49;;;;;;;61.63;54.97;;;19.00;95.80;;;;;;5115549;28;20040;-65
2021/07/13 02:43:16;;;;;;;62.03;55.43;;;19.00;95.70;;;;;;5115116;28;20460;-65
2021/07/13 02:45:42;;;;;;;60.13;52.47;;;19.00;95.80;;;;;;5114745;28;20040;-65
2021/07/13 02:48:11;;;;;;;61.03;54.43;;;19.00;95.80;;;;;;5115788;28;20043;-65
2021/07/13 02:50:38;;;;;;;61.63;54.20;;;19.00;95.80;;;;;;5115402;28;20044;-65
2021/07/13 02:53:04;;;;;;;51.10;45.80;;;18.90;95.80;;;;;;5114792;27;20044;-65
2021/07/13 02:55:32;;;;;;;50.70;45.27;;;18.90;95.90;;;;;;5114653;28;20043;-65
2021/07/13 02:58:00;;;;;;;56.50;50.70;;;18.90;95.90;;;;;;5115354;28;20089;-65
2021/07/13 03:00:27;;;;;;;54.67;49.17;;;18.90;95.80;;;;;;5113936;28;20048;-65
2021/07/13 03:02:54;;;;;;;57.90;51.63;;;19.00;95.80;;;;;;5115281;28;20070;-65
2021/07/13 03:05:23;;;;;;;57.57;51.63;;;19.00;95.70;;;;;;5113891;28;20063;-65
2021/07/13 03:07:49;;;;;;;56.13;50.43;;;19.00;95.70;;;;;;5115133;28;20052;-65
2021/07/13 03:10:23;;;;;;;59.13;52.57;;;19.00;95.70;;;;;;5114614;28;20044;-65
2021/07/13 03:12:50;;;;;;;58.70;52.47;;;19.00;95.70;;;;;;5114028;28;20051;-65
2021/07/13 03:15:20;;;;;;;58.13;52.13;;;19.00;95.70;;;;;;5114887;28;20046;-65
2021/07/13 03:17:46;;;;;;;56.97;50.77;;;19.00;95.70;;;;;;5114718;28;20058;-65
2021/07/13 03:20:12;;;;;;;64.30;56.57;;;19.00;95.70;;;;;;5113758;28;20044;-65
2021/07/13 03:22:41;;;;;;;56.70;50.77;;;19.00;95.80;;;;;;5114296;27;20120;-65
2021/07/13 03:25:11;;;;;;;62.10;55.63;;;18.90;95.80;;;;;;5114531;28;20051;-65
2021/07/13 03:27:37;;;;;;;61.42;54.67;;;18.90;95.90;;;;;;5113773;28;20090;-65
2021/07/13 03:30:04;;;;;;;52.27;46.87;;;18.90;95.90;;;;;;5114422;28;20496;-66
2021/07/13 03:32:33;;;;;;;64.07;57.17;;;18.90;96.00;;;;;;5113502;27;20131;-66
2021/07/13 03:35:00;;;;;;;66.13;57.80;;;18.90;96.00;;;;;;5113458;27;20047;-66
2021/07/13 03:37:26;;;;;;;59.53;53.13;;;18.90;96.00;;;;;;5114115;28;20051;-66
2021/07/13 03:39:52;;;;;;;56.73;50.93;;;18.90;96.10;;;;;;5114407;28;20059;-66
2021/07/13 03:42:19;;;;;;;64.73;57.83;;;18.90;96.10;;;;;;5112872;28;20484;-66
2021/07/13 03:44:45;;;;;;;61.63;54.83;;;18.90;96.10;;;;;;5114008;28;20180;-66
2021/07/13 03:47:15;;;;;;;61.83;54.50;;;18.90;96.10;;;;;;5113578;28;20083;-65
2021/07/13 03:49:42;;;;;;;59.00;52.67;;;18.90;96.10;;;;;;5112804;28;20058;-66
2021/07/13 03:52:09;;;;;;;56.03;49.80;;;18.80;96.10;;;;;;5113259;28;20112;-67
2021/07/13 03:54:35;;;;;;;65.00;58.40;;;18.80;96.10;;;;;;5112528;28;20043;-66
2021/07/13 03:57:00;;;;;;;57.57;51.63;;;18.80;96.20;;;;;;5113659;28;20040;-66
2021/07/13 03:59:26;;;;;;;55.77;49.70;;;18.80;96.20;;;;;;5113206;28;20082;-65
2021/07/13 04:01:52;;;;;;;62.80;56.17;;;18.80;96.20;;;;;;5112247;28;20109;-65
2021/07/13 04:04:17;;;;;;;56.00;49.97;;;18.80;96.20;;;;;;5113017;28;20052;-66
2021/07/13 04:06:43;;;;;;;54.70;49.00;;;18.90;96.30;;;;;;5113532;28;20138;-65
2021/07/13 04:09:09;;;;;;;61.37;54.70;;;18.90;96.30;;;;;;5111751;28;20376;-66
2021/07/13 04:11:36;;;;;;;65.80;58.80;;;18.90;96.30;;;;;;5113333;28;20074;-65
2021/07/13 04:14:03;;;;;;;68.03;60.00;;;18.90;96.30;;;;;;5113036;28;20477;-66
2021/07/13 04:16:30;;;;;;;63.80;57.30;;;18.90;96.30;;;;;;5111792;28;20044;-66
2021/07/13 04:18:56;;;;;;;69.87;62.07;;;18.90;96.40;;;;;;5112672;27;20058;-66
2021/07/13 04:21:24;;;;;;;68.13;60.70;;;19.00;96.30;;;;;;5111545;28;20047;-66
2021/07/13 04:23:49;;;;;;;67.93;60.03;;;19.00;96.30;;;;;;5111858;28;20039;-66
2021/07/13 04:26:16;;;;;;;65.80;58.80;;;18.90;96.30;;;;;;5112425;28;20392;-66
2021/07/13 04:28:41;;;;;;;66.87;59.63;;;19.00;96.30;;;;;;5112668;28;20048;-65
2021/07/13 04:31:07;;;;;;;70.80;60.47;;;19.00;96.30;;;;;;5111927;28;20506;-65
2021/07/13 04:33:33;;;;;;;65.77;58.77;;;19.00;96.30;;;;;;5112002;28;20042;-65
2021/07/13 04:35:59;;;;;;;54.77;49.37;;;19.00;96.40;;;;;;5113014;27;20130;-66
2021/07/13 04:38:25;;;;;;;57.97;51.83;;;19.00;96.30;;;;;;5110965;28;20475;-65
2021/07/13 04:40:52;;;;;;;55.87;50.27;;;19.10;96.30;;;;;;5111955;28;20050;-66
2021/07/13 04:43:21;;;;;;;68.13;57.70;;;19.10;96.20;;;;;;5111167;28;20047;-65
2021/07/13 04:45:47;;;;;;;67.43;60.33;;;19.10;96.10;;;;;;5111338;28;20381;-65
2021/07/13 04:48:13;;;;;;;56.77;51.10;;;19.10;96.00;;;;;;5111753;28;20051;-66
2021/07/13 04:50:38;;;;;;;69.73;62.13;;;19.20;96.00;;;;;;5112154;28;20116;-66
2021/07/13 04:53:04;;;;;;;67.63;60.50;;;19.20;96.00;;;;;;5110771;28;20115;-66
2021/07/13 04:55:30;;;;;;;73.90;65.00;;;19.20;96.10;;;;;;5111874;28;20092;-66
2021/07/13 04:57:56;;;;;;;73.03;65.07;;;19.20;96.10;;;;;;5109388;28;20047;-66
2021/07/13 05:00:22;;;;;;;73.50;64.33;;;19.10;96.20;;;;;;5110771;28;20174;-65
2021/07/13 05:02:47;;;;;;;74.23;66.30;;;19.10;96.20;;;;;;5110655;28;20158;-65
2021/07/13 05:05:14;;;;;;;71.37;62.40;;;19.10;96.30;;;;;;5109783;28;20732;-66
2021/07/13 05:07:45;;;;;;;60.77;54.13;;;19.10;96.30;;;;;;5110351;28;20043;-66
2021/07/13 05:10:14;;;;;;;68.10;59.80;;;19.10;96.20;;;;;;5110290;27;20513;-66
2021/07/13 05:12:40;;;;;;;68.40;60.63;;;19.20;96.20;;;;;;5107063;28;20469;-66
2021/07/13 05:15:08;;;;;;;77.07;67.50;;;19.10;96.20;;;;;;5110832;28;20051;-66
2021/07/13 05:17:35;;;;;;;55.83;49.97;;;19.20;96.20;;;;;;5111792;28;20051;-66
2021/07/13 05:20:01;;;;;;;64.03;57.07;;;19.20;96.20;;;;;;5111388;28;20043;-65
2021/07/13 05:22:28;;;;;;;60.63;54.53;;;19.30;96.10;;;;;;5111848;28;20051;-66
2021/07/13 05:24:54;;;;;;;60.27;54.00;;;19.30;96.10;;;;;;5111962;28;20048;-66
2021/07/13 05:27:19;;;;;;;69.67;62.40;;;19.30;96.00;;;;;;5111388;28;20051;-66
2021/07/13 05:29:45;;;;;;;61.87;55.37;;;19.40;96.00;;;;;;5111845;28;20048;-66
2021/07/13 05:32:10;;;;;;;69.43;62.03;;;19.40;95.90;;;;;;5110213;28;20480;-66
2021/07/13 05:34:36;;;;;;;58.33;52.17;;;19.50;95.90;;;;;;5110212;28;20096;-66
2021/07/13 05:37:04;;;;;;;59.97;53.73;;;19.50;95.80;;;;;;5111026;28;20071;-66
2021/07/13 05:39:30;;;;;;;72.37;64.37;;;19.60;95.80;;;;;;5111634;28;20048;-66
2021/07/13 05:41:55;;;;;;;58.97;52.47;;;19.60;95.80;;;;;;5110791;28;20514;-66
2021/07/13 05:44:21;;;;;;;61.93;55.23;;;19.60;95.80;;;;;;5110742;28;20045;-66
2021/07/13 05:46:47;;;;;;;67.83;60.60;;;19.60;95.70;;;;;;5111198;28;20052;-66
2021/07/13 05:49:12;;;;;;;55.97;49.53;;;19.60;95.70;;;;;;5106986;28;20040;-66
2021/07/13 05:51:38;;;;;;;71.00;60.57;;;19.70;95.70;;;;;;5111327;28;20044;-66
2021/07/13 05:54:04;;;;;;;67.47;60.13;;;19.70;95.70;;;;;;5110964;28;20069;-66
2021/07/13 05:56:30;;;;;;;64.70;57.77;;;19.70;95.70;;;;;;5113985;28;20048;-66
2021/07/13 05:58:56;;;;;;;59.67;53.47;;;19.80;95.80;;;;;;5115090;28;20043;-66
2021/07/13 06:01:22;;;;;;;55.33;49.57;;;19.80;95.70;;;;;;5114634;27;20135;-66
2021/07/13 06:03:48;;;;;;;57.77;51.33;;;19.90;95.60;;;;;;5115654;28;20216;-66
2021/07/13 06:06:13;;;;;;;62.33;54.63;;;19.90;95.50;;;;;;5115019;28;20064;-66
2021/07/13 06:08:39;;;;;;;60.53;53.93;;;19.90;95.50;;;;;;5114400;28;20130;-66
2021/07/13 06:11:05;;;;;;;56.90;50.87;;;20.00;95.50;;;;;;5114859;28;20067;-66
2021/07/13 06:13:32;;;;;;;47.50;42.67;;;20.10;95.40;;;;;;5114528;28;20055;-66
2021/07/13 06:15:57;;;;;;;57.37;51.23;;;20.10;95.30;;;;;;5114235;28;20476;-66
2021/07/13 06:18:23;;;;;;;50.43;45.23;;;20.10;95.20;;;;;;5114470;28;20138;-66
2021/07/13 06:20:49;;;;;;;60.83;52.97;;;20.10;95.10;;;;;;5114624;28;20484;-66
2021/07/13 06:23:15;;;;;;;59.17;52.77;;;20.20;95.10;;;;;;5114213;28;20047;-66
2021/07/13 06:25:42;;;;;;;56.07;50.17;;;20.20;95.10;;;;;;5115394;28;20055;-66
2021/07/13 06:28:08;;;;;;;49.30;44.17;;;20.20;95.00;;;;;;5115047;28;20047;-66
2021/07/13 06:30:34;;;;;;;46.83;42.10;;;20.30;95.00;;;;;;5113600;28;20131;-66
2021/07/13 06:33:00;;;;;;;50.20;45.07;;;20.30;94.80;;;;;;5114317;28;20093;-66
2021/07/13 06:35:26;;;;;;;52.63;47.13;;;20.40;94.70;;;;;;5114463;28;20055;-66
2021/07/13 06:37:52;;;;;;;47.90;43.03;;;20.40;94.70;;;;;;5113795;28;20035;-66
2021/07/13 06:40:24;;;;;;;48.00;43.10;;;20.50;94.50;;;;;;5113911;28;20065;-66
2021/07/13 06:42:49;;;;;;;48.17;43.17;;;20.60;94.40;;;;;;5114372;28;20127;-66
2021/07/13 06:45:15;;;;;;;44.63;40.17;;;20.60;94.30;;;;;;5113008;28;20063;-66
2021/07/13 06:47:40;;;;;;;53.03;47.60;;;20.60;94.10;;;;;;5114557;28;20047;-66
2021/07/13 06:50:07;;;;;;;47.27;42.53;;;20.70;94.10;;;;;;5114092;28;20047;-66
2021/07/13 06:52:32;;;;;;;42.93;38.57;;;20.80;94.10;;;;;;5114003;28;20055;-67
2021/07/13 06:55:02;;;;;;;46.40;41.70;;;20.80;94.00;;;;;;5114078;28;20047;-66
2021/07/13 06:57:28;;;;;;;45.00;40.30;;;20.80;93.90;;;;;;5112463;28;20134;-66
2021/07/13 06:59:59;;;;;;;40.90;36.63;;;20.90;93.90;;;;;;5111348;28;20535;-66
2021/07/13 07:02:25;;;;;;;41.53;37.25;;;20.90;93.70;;;;;;5113526;28;20490;-66
2021/07/13 07:04:52;;;;;;;44.13;39.37;;;21.00;93.70;;;;;;5113443;28;20128;-67
2021/07/13 07:07:18;;;;;;;43.47;38.90;;;21.00;93.50;;;;;;5112534;28;20047;-66
2021/07/13 07:09:43;;;;;;;38.27;34.17;;;21.00;93.50;;;;;;5113026;28;21450;-67
2021/07/13 07:12:09;;;;;;;37.88;34.05;;;21.00;93.40;;;;;;5111203;28;20060;-66
2021/07/13 07:14:34;;;;;;;39.80;35.63;;;21.00;93.30;;;;;;5113199;28;20048;-66
2021/07/13 07:17:00;;;;;;;40.93;36.60;;;21.00;93.40;;;;;;5113607;28;20494;-67
2021/07/13 07:19:26;;;;;;;39.30;35.13;;;21.10;93.60;;;;;;5113124;28;20120;-67
2021/07/13 07:21:51;;;;;;;40.50;36.17;;;21.10;93.50;;;;;;5114096;28;20048;-66
2021/07/13 07:24:17;;;;;;;44.07;39.60;;;21.20;93.40;;;;;;5113840;28;20461;-66
2021/07/13 07:26:42;;;;;;;37.03;33.23;;;21.20;93.50;;;;;;5113104;28;20055;-66
2021/07/13 07:29:08;;;;;;;35.30;31.70;;;21.30;93.40;;;;;;5113243;28;20047;-66
2021/07/13 07:31:34;;;;;;;38.30;34.13;;;21.30;93.30;;;;;;5112344;28;20058;-67
2021/07/13 07:33:59;;;;;;;33.10;29.98;;;21.30;93.20;;;;;;5111717;28;20480;-67
2021/07/13 07:36:27;;;;;;;32.55;29.20;;;21.30;93.00;;;;;;5111862;28;20119;-66
2021/07/13 07:38:53;;;;;;;31.07;28.00;;;21.40;92.90;;;;;;5112586;28;20389;-67
2021/07/13 07:41:20;;;;;;;32.45;29.15;;;21.40;92.70;;;;;;5110952;28;20059;-67
2021/07/13 07:43:46;;;;;;;32.15;28.83;;;21.40;92.70;;;;;;5112229;28;20043;-67
2021/07/13 07:46:12;;;;;;;30.00;26.98;;;21.40;92.70;;;;;;5111995;28;20054;-67
2021/07/13 07:48:38;;;;;;;31.65;28.40;;;21.40;92.70;;;;;;5111340;28;20051;-67
2021/07/13 07:51:06;;;;;;;27.77;25.17;;;21.50;92.70;;;;;;5112091;28;20055;-66
2021/07/13 07:53:32;;;;;;;28.40;25.40;;;21.50;92.60;;;;;;5111882;28;20125;-67
2021/07/13 07:55:58;;;;;;;29.98;26.90;;;21.50;92.60;;;;;;5110986;28;20066;-67
2021/07/13 07:58:24;;;;;;;26.67;24.08;;;21.50;92.60;;;;;;5111693;28;20480;-67
2021/07/13 08:00:50;;;;;;;27.75;24.95;;;21.50;92.50;;;;;;5111066;28;20477;-67
2021/07/13 08:03:16;;;;;;;27.17;24.38;;;21.40;92.40;;;;;;5111602;28;20523;-67
2021/07/13 08:05:42;;;;;;;28.77;25.88;;;21.50;92.40;;;;;;5111575;28;20074;-68
2021/07/13 08:08:09;;;;;;;26.50;23.90;;;21.50;92.50;;;;;;5111095;28;20104;-67
2021/07/13 08:10:35;;;;;;;29.13;26.20;;;21.50;92.20;;;;;;5111531;28;20490;-67
2021/07/13 08:13:02;;;;;;;28.40;25.70;;;21.60;92.20;;;;;;5111966;28;20488;-67
2021/07/13 08:15:28;;;;;;;26.58;24.02;;;21.60;92.10;;;;;;5111158;28;20484;-67
2021/07/13 08:17:54;;;;;;;29.67;26.70;;;21.60;92.10;;;;;;5112470;28;20061;-67
2021/07/13 08:20:20;;;;;;;28.77;25.88;;;21.60;92.10;;;;;;5112849;28;20053;-67
2021/07/13 08:22:47;;;;;;;29.80;26.90;;;21.60;92.10;;;;;;5111537;28;20055;-67
2021/07/13 08:25:15;;;;;;;27.60;24.65;;;21.60;92.00;;;;;;5112140;28;20040;-67
2021/07/13 08:27:41;;;;;;;31.88;28.60;;;21.60;92.00;;;;;;5112503;28;20052;-67
2021/07/13 08:30:07;;;;;;;29.23;26.38;;;21.60;92.10;;;;;;5112394;28;20369;-67
2021/07/13 08:32:33;;;;;;;26.38;24.05;;;21.60;92.10;;;;;;5113003;28;20051;-67
2021/07/13 08:34:59;;;;;;;29.15;26.42;;;21.60;92.20;;;;;;5113095;28;20044;-66
2021/07/13 08:37:27;;;;;;;28.17;25.58;;;21.60;92.10;;;;;;5111784;28;20107;-67
2021/07/13 08:39:52;;;;;;;28.30;25.40;;;21.60;92.10;;;;;;5112636;28;20047;-67
2021/07/13 08:42:18;;;;;;;28.95;25.98;;;21.60;92.10;;;;;;5112295;28;20044;-67
2021/07/13 08:44:44;;;;;;;28.13;25.58;;;21.60;92.10;;;;;;5111621;28;20043;-67
2021/07/13 08:47:16;;;;;;;26.58;24.23;;;21.60;92.10;;;;;;5110384;28;20052;-67
2021/07/13 08:49:43;;;;;;;27.13;24.52;;;21.70;91.90;;;;;;5112661;28;20063;-67
2021/07/13 08:52:09;;;;;;;29.10;26.23;;;21.70;91.80;;;;;;5111524;28;20051;-67
2021/07/13 08:54:35;;;;;;;29.70;26.45;;;21.70;91.80;;;;;;5112337;28;20534;-67
2021/07/13 08:57:01;;;;;;;28.85;26.23;;;21.80;91.70;;;;;;5111961;28;20051;-67
2021/07/13 08:59:30;;;;;;;25.67;23.00;;;21.80;91.60;;;;;;5112395;28;20545;-67
2021/07/13 09:01:56;;;;;;;27.60;25.00;;;21.80;91.40;;;;;;5112235;28;20059;-67
2021/07/13 09:04:35;;;;;;;25.65;23.17;;;21.90;91.50;;;;;;5111094;28;20495;-67
2021/07/13 09:07:06;;;;;;;27.15;24.70;;;21.90;91.40;;;;;;5112079;28;20044;-67
2021/07/13 09:09:34;;;;;;;25.98;23.38;;;21.90;91.30;;;;;;5112054;28;20118;-67
2021/07/13 09:12:09;;;;;;;26.80;24.10;;;22.00;91.20;;;;;;5111293;28;20044;-67
2021/07/13 09:15:01;;;;;;;25.38;23.17;;;22.00;91.10;;;;;;5111882;28;20051;-67
2021/07/13 09:17:35;;;;;;;26.45;24.05;;;22.00;91.10;;;;;;5111337;28;20438;-67
2021/07/13 09:20:07;;;;;;;23.52;21.42;;;22.00;91.00;;;;;;5111221;28;20510;-66
2021/07/13 09:22:50;;;;;;;23.25;21.27;;;22.10;91.00;;;;;;5111970;28;20048;-66
2021/07/13 09:25:35;;;;;;;25.05;22.58;;;22.10;91.00;;;;;;5110955;28;20139;-67
2021/07/13 09:28:16;;;;;;;23.35;21.23;;;22.10;90.90;;;;;;5112105;28;20109;-66
2021/07/13 09:30:46;;;;;;;24.33;22.15;;;22.20;90.90;;;;;;5111558;28;20544;-66
2021/07/13 09:33:33;;;;;;;22.83;20.52;;;22.20;90.80;;;;;;5110678;28;20138;-66
2021/07/13 09:36:08;;;;;;;20.88;18.92;;;22.20;90.60;;;;;;5111928;28;20134;-66
2021/07/13 09:38:39;;;;;;;24.13;21.83;;;22.30;90.60;;;;;;5111925;28;20074;-66
2021/07/13 09:41:16;;;;;;;23.77;21.80;;;22.30;90.60;;;;;;5111337;28;20051;-66
2021/07/13 09:44:10;;;;;;;22.75;20.55;;;22.40;90.60;;;;;;5111692;28;20051;-66
2021/07/13 09:46:42;;;;;;;24.27;22.08;;;22.40;90.50;;;;;;5111003;28;20064;-66
2021/07/13 09:49:22;;;;;;;24.25;21.95;;;22.40;90.50;;;;;;5112023;28;20055;-66
2021/07/13 09:52:02;;;;;;;23.50;21.38;;;22.40;90.50;;;;;;5110404;28;20047;-66
2021/07/13 09:54:38;;;;;;;26.35;23.88;;;22.40;90.40;;;;;;5110473;28;20407;-66
2021/07/13 09:57:11;;;;;;;23.42;21.30;;;22.40;90.50;;;;;;5111552;28;20126;-66
2021/07/13 09:59:37;;;;;;;25.67;23.25;;;22.40;90.40;;;;;;5111838;28;20454;-66
2021/07/13 10:02:05;;;;;;;25.77;23.30;;;22.40;90.40;;;;;;5110610;28;20143;-66
2021/07/13 10:04:32;;;;;;;24.35;22.02;;;22.40;90.50;;;;;;5111454;28;20044;-66
2021/07/13 10:07:03;;;;;;;22.52;20.15;;;22.40;90.50;;;;;;5111620;28;20429;-65
2021/07/13 10:09:33;;;;;;;22.55;20.20;;;22.40;90.50;;;;;;5110466;28;20051;-66
2021/07/13 10:11:59;;;;;;;23.38;21.17;;;22.40;90.50;;;;;;5111759;28;20421;-67
2021/07/13 10:14:25;;;;;;;27.17;23.20;;;22.40;90.40;;;;;;5110197;28;20140;-66
2021/07/13 10:16:52;;;;;;;25.77;23.25;;;22.30;90.30;;;;;;5111319;28;20044;-66
2021/07/13 10:19:19;;;;;;;24.73;22.38;;;22.40;90.40;;;;;;5111033;28;20059;-66
2021/07/13 10:21:46;;;;;;;23.33;21.15;;;22.30;90.40;;;;;;5110546;28;20043;-67
2021/07/13 10:24:12;;;;;;;24.20;21.77;;;22.30;90.50;;;;;;5110981;28;20096;-67
2021/07/13 10:26:50;;;;;;;24.95;22.55;;;22.30;90.50;;;;;;5111254;28;20059;-67
2021/07/13 10:29:31;;;;;;;22.10;19.98;;;22.30;90.50;;;;;;5109739;28;20044;-67
2021/07/13 10:32:06;;;;;;;25.42;23.02;;;22.30;90.40;;;;;;5107697;28;20063;-66
2021/07/13 10:34:51;;;;;;;27.17;24.35;;;22.30;90.50;;;;;;5107596;28;20051;-67
2021/07/13 10:37:35;;;;;;;22.67;20.48;;;22.30;90.60;;;;;;5108166;28;20126;-67
2021/07/13 10:40:13;;;;;;;25.58;22.80;;;22.30;90.60;;;;;;5109289;28;20461;-67
2021/07/13 10:42:43;;;;;;;28.67;25.80;;;22.30;90.70;;;;;;5110871;28;20046;-67
2021/07/13 10:45:19;;;;;;;26.00;23.48;;;22.40;90.80;;;;;;5113907;27;20112;-67
2021/07/13 10:47:59;;;;;;;27.95;25.13;;;22.40;90.80;;;;;;5113805;28;20480;-66
2021/07/13 10:50:24;;;;;;;26.90;24.15;;;22.40;90.80;;;;;;5112198;28;20054;-66
2021/07/13 10:52:54;;;;;;;27.25;24.85;;;22.40;90.80;;;;;;5114093;28;20036;-67
2021/07/13 10:55:35;;;;;;;24.65;22.35;;;22.40;90.80;;;;;;5112931;28;20059;-67
2021/07/13 10:58:10;;;;;;;24.83;22.40;;;22.50;90.80;;;;;;5112091;28;20113;-67
2021/07/13 11:00:51;;;;;;;28.35;25.80;;;22.50;90.70;;;;;;5112400;28;20070;-67
2021/07/13 11:03:32;;;;;;;27.95;25.27;;;22.50;90.90;;;;;;5111572;28;20087;-67
2021/07/13 11:06:07;;;;;;;29.13;26.13;;;22.50;91.00;;;;;;5112801;28;20043;-67
2021/07/13 11:08:39;;;;;;;33.55;28.77;;;22.50;91.10;;;;;;5114069;28;20047;-67
2021/07/13 11:11:05;;;;;;;30.17;25.45;;;22.50;91.10;;;;;;5113617;28;20404;-67
2021/07/13 11:13:31;;;;;;;28.02;25.27;;;22.50;91.10;;;;;;5114275;28;20189;-67
2021/07/13 11:15:56;;;;;;;31.63;28.45;;;22.50;91.00;;;;;;5113646;28;20535;-67
2021/07/13 11:18:26;;;;;;;32.00;28.90;;;22.40;91.30;;;;;;5112623;28;20047;-67
2021/07/13 11:20:52;;;;;;;27.25;24.55;;;22.50;91.60;;;;;;5111459;28;20048;-68
2021/07/13 11:23:27;;;;;;;26.35;23.73;;;22.50;91.70;;;;;;5113342;28;20127;-69
2021/07/13 11:26:03;;;;;;;29.05;25.50;;;22.50;91.50;;;;;;5110670;28;20066;-68
2021/07/13 11:28:29;;;;;;;27.88;25.25;;;22.50;91.60;;;;;;5110579;28;20047;-68
2021/07/13 11:30:55;;;;;;;34.58;31.20;;;22.40;91.50;;;;;;5113190;28;20503;-68
2021/07/13 11:33:26;;;;;;;33.75;30.58;;;22.40;91.90;;;;;;5112593;28;20153;-68
2021/07/13 11:35:54;;;;;;;37.05;33.53;;;22.40;92.20;;;;;;5110917;28;20043;-67
2021/07/13 11:38:27;;;;;;;38.90;35.10;;;22.30;92.50;;;;;;5113198;28;20488;-68
2021/07/13 11:41:12;;;;;;;37.88;33.35;;;22.30;92.70;;;;;;5110370;28;20123;-67
2021/07/13 11:43:41;;;;;;;38.08;34.25;;;22.20;92.70;;;;;;5111766;28;20048;-68
2021/07/13 11:46:11;;;;;;;41.53;37.45;;;22.10;92.80;;;;;;5112521;28;20145;-68
2021/07/13 11:48:37;;;;;;;41.85;37.47;;;22.10;93.00;;;;;;5113320;28;20142;-68
2021/07/13 11:51:09;;;;;;;41.58;37.38;;;22.00;93.20;;;;;;5113043;28;20086;-69
2021/07/13 11:53:35;;;;;;;39.45;35.55;;;22.00;93.30;;;;;;5112006;28;20130;-69
2021/07/13 11:56:02;;;;;;;42.85;38.80;;;22.00;93.40;;;;;;5113063;28;20172;-69
2021/07/13 11:58:30;;;;;;;41.08;36.88;;;21.90;93.60;;;;;;5112851;28;20816;-69
2021/07/13 12:01:15;;;;;;;41.58;37.13;;;21.90;93.70;;;;;;5111924;28;20101;-69
2021/07/13 12:03:41;;;;;;;36.78;33.40;;;21.90;93.70;;;;;;5111941;28;20048;-69
2021/07/13 12:06:11;;;;;;;41.58;37.20;;;21.90;93.70;;;;;;5112434;28;20070;-70
2021/07/13 12:08:38;;;;;;;40.30;36.15;;;21.90;93.80;;;;;;5112311;28;20051;-70
2021/07/13 12:11:08;;;;;;;39.97;35.97;;;21.80;93.80;;;;;;5112710;28;20403;-68
2021/07/13 12:13:37;;;;;;;42.33;37.42;;;21.80;93.90;;;;;;5112621;28;20044;-68
2021/07/13 12:16:33;;;;;;;37.45;33.38;;;21.70;94.00;;;;;;5111389;28;20043;-69
2021/07/13 12:19:13;;;;;;;39.80;35.60;;;21.70;94.00;;;;;;5107438;28;20127;-69
2021/07/13 12:22:00;;;;;;;37.25;33.50;;;21.70;94.10;;;;;;5110558;28;20043;-68
2021/07/13 12:24:36;;;;;;;43.25;35.95;;;21.70;94.10;;;;;;5111570;28;20040;-69
2021/07/13 12:27:05;;;;;;;35.70;31.80;;;21.70;94.10;;;;;;5112317;28;20052;-69
2021/07/13 12:29:37;;;;;;;41.75;35.65;;;21.60;94.00;;;;;;5108861;28;20039;-70
2021/07/13 12:32:05;;;;;;;40.40;35.72;;;21.60;94.10;;;;;;5112575;28;20048;-69
2021/07/13 12:34:37;;;;;;;38.53;34.38;;;21.60;94.10;;;;;;5109040;28;20400;-69
2021/07/13 12:37:09;;;;;;;40.55;33.65;;;21.60;94.10;;;;;;5111235;28;20506;-69